sensor_id;sensor_type;location;lat;lon;timestamp;pressure;altitude;pressure_sealevel;temperature;humidity
41306;BME280;27051;50.376;19.152;2023-04-27T00:00:59;98294.54;;;6.52;48.58
41306;BME280;27051;50.376;19.152;2023-04-27T00:03:26;98293.63;;;6.48;48.51
41306;BME280;27051;50.376;19.152;2023-04-27T00:05:53;98296.65;;;6.47;48.69
41306;BME280;27051;50.376;19.152;2023-04-27T00:08:19;98296.58;;;6.43;48.72
41306;BME280;27051;50.376;19.152;2023-04-27T00:10:46;98295.93;;;6.42;48.86
41306;BME280;27051;50.376;19.152;2023-04-27T00:13:15;98296.75;;;6.41;49.00
41306;BME280;27051;50.376;19.152;2023-04-27T00:15:42;98293.77;;;6.42;49.01
41306;BME280;27051;50.376;19.152;2023-04-27T00:18:08;98293.54;;;6.41;48.94
41306;BME280;27051;50.376;19.152;2023-04-27T00:20:35;98296.31;;;6.37;48.98
41306;BME280;27051;50.376;19.152;2023-04-27T00:23:01;98291.88;;;6.34;49.00
41306;BME280;27051;50.376;19.152;2023-04-27T00:25:27;98290.73;;;6.30;49.15
41306;BME280;27051;50.376;19.152;2023-04-27T00:27:54;98289.23;;;6.26;49.26
41306;BME280;27051;50.376;19.152;2023-04-27T00:30:20;98287.61;;;6.26;49.33
41306;BME280;27051;50.376;19.152;2023-04-27T00:32:46;98288.12;;;6.23;49.32
41306;BME280;27051;50.376;19.152;2023-04-27T00:35:13;98288.20;;;6.19;49.36
41306;BME280;27051;50.376;19.152;2023-04-27T00:37:39;98286.39;;;6.13;49.49
41306;BME280;27051;50.376;19.152;2023-04-27T00:40:06;98288.41;;;6.08;49.39
41306;BME280;27051;50.376;19.152;2023-04-27T00:42:34;98289.38;;;6.00;49.56
41306;BME280;27051;50.376;19.152;2023-04-27T00:45:01;98295.30;;;5.95;49.63
41306;BME280;27051;50.376;19.152;2023-04-27T00:47:29;98294.25;;;5.91;49.66
41306;BME280;27051;50.376;19.152;2023-04-27T00:49:55;98297.64;;;5.89;49.75
41306;BME280;27051;50.376;19.152;2023-04-27T00:52:22;98298.27;;;5.88;49.94
41306;BME280;27051;50.376;19.152;2023-04-27T00:54:50;98298.35;;;5.85;49.90
41306;BME280;27051;50.376;19.152;2023-04-27T00:57:17;98299.63;;;5.82;49.94
41306;BME280;27051;50.376;19.152;2023-04-27T00:59:45;98300.02;;;5.79;50.11
41306;BME280;27051;50.376;19.152;2023-04-27T01:02:12;98305.70;;;5.76;50.09
41306;BME280;27051;50.376;19.152;2023-04-27T01:04:39;98304.16;;;5.75;50.37
41306;BME280;27051;50.376;19.152;2023-04-27T01:07:06;98303.85;;;5.71;50.37
41306;BME280;27051;50.376;19.152;2023-04-27T01:09:32;98300.12;;;5.68;50.46
41306;BME280;27051;50.376;19.152;2023-04-27T01:11:59;98300.75;;;5.68;50.49
41306;BME280;27051;50.376;19.152;2023-04-27T01:14:25;98301.88;;;5.68;50.56
41306;BME280;27051;50.376;19.152;2023-04-27T01:16:52;98300.20;;;5.69;50.61
41306;BME280;27051;50.376;19.152;2023-04-27T01:19:18;98301.10;;;5.69;50.72
41306;BME280;27051;50.376;19.152;2023-04-27T01:21:45;98300.86;;;5.69;50.82
41306;BME280;27051;50.376;19.152;2023-04-27T01:24:15;98302.95;;;5.70;50.64
41306;BME280;27051;50.376;19.152;2023-04-27T01:26:42;98303.21;;;5.65;50.68
41306;BME280;27051;50.376;19.152;2023-04-27T01:29:08;98307.34;;;5.64;50.80
41306;BME280;27051;50.376;19.152;2023-04-27T01:31:35;98306.12;;;5.64;50.79
41306;BME280;27051;50.376;19.152;2023-04-27T01:34:01;98309.45;;;5.63;50.73
41306;BME280;27051;50.376;19.152;2023-04-27T01:36:27;98308.13;;;5.58;50.90
41306;BME280;27051;50.376;19.152;2023-04-27T01:38:55;98309.62;;;5.56;51.09
41306;BME280;27051;50.376;19.152;2023-04-27T01:41:22;98311.20;;;5.50;51.00
41306;BME280;27051;50.376;19.152;2023-04-27T01:43:49;98310.85;;;5.46;51.10
41306;BME280;27051;50.376;19.152;2023-04-27T01:46:15;98311.09;;;5.42;51.23
41306;BME280;27051;50.376;19.152;2023-04-27T01:48:43;98313.42;;;5.40;51.29
41306;BME280;27051;50.376;19.152;2023-04-27T01:51:09;98313.40;;;5.38;51.42
41306;BME280;27051;50.376;19.152;2023-04-27T01:53:37;98312.13;;;5.35;51.23
41306;BME280;27051;50.376;19.152;2023-04-27T01:56:05;98312.70;;;5.33;51.57
41306;BME280;27051;50.376;19.152;2023-04-27T01:58:31;98314.19;;;5.29;51.52
41306;BME280;27051;50.376;19.152;2023-04-27T02:01:04;98317.31;;;5.27;51.73
41306;BME280;27051;50.376;19.152;2023-04-27T02:03:31;98319.68;;;5.26;51.60
41306;BME280;27051;50.376;19.152;2023-04-27T02:05:57;98318.31;;;5.22;51.73
41306;BME280;27051;50.376;19.152;2023-04-27T02:08:24;98322.83;;;5.21;51.72
41306;BME280;27051;50.376;19.152;2023-04-27T02:10:50;98324.46;;;5.19;51.88
41306;BME280;27051;50.376;19.152;2023-04-27T02:13:17;98323.08;;;5.16;51.81
41306;BME280;27051;50.376;19.152;2023-04-27T02:15:44;98323.72;;;5.13;51.94
41306;BME280;27051;50.376;19.152;2023-04-27T02:18:14;98319.71;;;5.08;52.18
41306;BME280;27051;50.376;19.152;2023-04-27T02:20:41;98317.54;;;5.05;52.05
41306;BME280;27051;50.376;19.152;2023-04-27T02:23:09;98315.30;;;5.03;52.24
41306;BME280;27051;50.376;19.152;2023-04-27T02:25:36;98318.42;;;5.04;52.26
41306;BME280;27051;50.376;19.152;2023-04-27T02:28:11;98312.02;;;5.01;52.27
41306;BME280;27051;50.376;19.152;2023-04-27T02:30:38;98314.52;;;4.98;52.41
41306;BME280;27051;50.376;19.152;2023-04-27T02:33:05;98311.77;;;4.95;52.40
41306;BME280;27051;50.376;19.152;2023-04-27T02:35:35;98317.59;;;4.94;52.56
41306;BME280;27051;50.376;19.152;2023-04-27T02:38:02;98312.58;;;4.89;52.73
41306;BME280;27051;50.376;19.152;2023-04-27T02:40:28;98311.29;;;4.88;52.68
41306;BME280;27051;50.376;19.152;2023-04-27T02:42:54;98312.09;;;4.89;52.73
41306;BME280;27051;50.376;19.152;2023-04-27T02:45:21;98310.00;;;4.92;52.80
41306;BME280;27051;50.376;19.152;2023-04-27T02:47:47;98312.45;;;5.01;52.80
41306;BME280;27051;50.376;19.152;2023-04-27T02:50:14;98315.69;;;5.04;52.90
41306;BME280;27051;50.376;19.152;2023-04-27T02:52:40;98316.10;;;5.08;52.88
41306;BME280;27051;50.376;19.152;2023-04-27T02:55:07;98315.78;;;5.13;52.86
41306;BME280;27051;50.376;19.152;2023-04-27T02:57:34;98314.65;;;5.16;52.86
41306;BME280;27051;50.376;19.152;2023-04-27T03:00:02;98316.38;;;5.13;53.05
41306;BME280;27051;50.376;19.152;2023-04-27T03:02:29;98315.53;;;5.12;52.96
41306;BME280;27051;50.376;19.152;2023-04-27T03:04:55;98320.00;;;5.12;52.98
41306;BME280;27051;50.376;19.152;2023-04-27T03:07:23;98318.23;;;5.10;53.00
41306;BME280;27051;50.376;19.152;2023-04-27T03:09:51;98317.95;;;5.11;53.37
41306;BME280;27051;50.376;19.152;2023-04-27T03:12:17;98316.00;;;5.10;53.35
41306;BME280;27051;50.376;19.152;2023-04-27T03:14:44;98322.11;;;5.05;53.30
41306;BME280;27051;50.376;19.152;2023-04-27T03:17:10;98324.50;;;5.01;53.37
41306;BME280;27051;50.376;19.152;2023-04-27T03:19:36;98326.73;;;5.03;53.39
41306;BME280;27051;50.376;19.152;2023-04-27T03:22:03;98327.38;;;5.01;53.29
41306;BME280;27051;50.376;19.152;2023-04-27T03:24:29;98327.63;;;4.95;53.32
41306;BME280;27051;50.376;19.152;2023-04-27T03:26:56;98328.30;;;4.94;53.39
41306;BME280;27051;50.376;19.152;2023-04-27T03:29:24;98333.45;;;4.92;53.36
41306;BME280;27051;50.376;19.152;2023-04-27T03:31:51;98338.56;;;4.92;53.48
41306;BME280;27051;50.376;19.152;2023-04-27T03:34:18;98342.68;;;4.88;53.43
41306;BME280;27051;50.376;19.152;2023-04-27T03:36:45;98342.84;;;4.83;53.40
41306;BME280;27051;50.376;19.152;2023-04-27T03:39:13;98348.00;;;4.78;53.54
41306;BME280;27051;50.376;19.152;2023-04-27T03:41:39;98349.02;;;4.77;53.53
41306;BME280;27051;50.376;19.152;2023-04-27T03:44:09;98349.85;;;4.78;53.76
41306;BME280;27051;50.376;19.152;2023-04-27T03:46:35;98352.33;;;4.65;53.59
41306;BME280;27051;50.376;19.152;2023-04-27T03:49:02;98357.96;;;4.66;53.86
41306;BME280;27051;50.376;19.152;2023-04-27T03:51:30;98361.16;;;4.68;53.95
41306;BME280;27051;50.376;19.152;2023-04-27T03:53:57;98358.68;;;4.66;53.86
41306;BME280;27051;50.376;19.152;2023-04-27T03:56:24;98362.32;;;4.59;53.98
41306;BME280;27051;50.376;19.152;2023-04-27T03:58:51;98364.17;;;4.60;54.05
41306;BME280;27051;50.376;19.152;2023-04-27T04:01:17;98363.77;;;4.62;54.03
41306;BME280;27051;50.376;19.152;2023-04-27T04:03:44;98366.98;;;4.60;54.13
41306;BME280;27051;50.376;19.152;2023-04-27T04:06:10;98365.61;;;4.61;54.25
41306;BME280;27051;50.376;19.152;2023-04-27T04:08:37;98367.44;;;4.63;54.31
41306;BME280;27051;50.376;19.152;2023-04-27T04:11:03;98368.75;;;4.67;54.34
41306;BME280;27051;50.376;19.152;2023-04-27T04:13:30;98373.88;;;4.81;54.51
41306;BME280;27051;50.376;19.152;2023-04-27T04:18:27;98373.69;;;4.94;54.51
41306;BME280;27051;50.376;19.152;2023-04-27T04:20:54;98373.95;;;4.97;54.34
41306;BME280;27051;50.376;19.152;2023-04-27T04:23:24;98376.02;;;4.98;54.53
41306;BME280;27051;50.376;19.152;2023-04-27T04:25:51;98376.30;;;4.99;54.80
41306;BME280;27051;50.376;19.152;2023-04-27T04:28:17;98378.41;;;5.00;54.83
41306;BME280;27051;50.376;19.152;2023-04-27T04:30:44;98377.91;;;5.02;54.67
41306;BME280;27051;50.376;19.152;2023-04-27T04:33:14;98378.77;;;5.01;54.87
41306;BME280;27051;50.376;19.152;2023-04-27T04:35:40;98382.09;;;5.04;54.94
41306;BME280;27051;50.376;19.152;2023-04-27T04:38:07;98382.37;;;5.06;54.93
41306;BME280;27051;50.376;19.152;2023-04-27T04:40:34;98383.27;;;5.08;55.08
41306;BME280;27051;50.376;19.152;2023-04-27T04:43:00;98387.09;;;5.13;55.21
41306;BME280;27051;50.376;19.152;2023-04-27T04:45:27;98388.81;;;5.17;55.21
41306;BME280;27051;50.376;19.152;2023-04-27T04:47:54;98389.31;;;5.25;55.17
41306;BME280;27051;50.376;19.152;2023-04-27T04:50:22;98393.95;;;5.33;55.16
41306;BME280;27051;50.376;19.152;2023-04-27T04:52:49;98392.42;;;5.40;55.18
41306;BME280;27051;50.376;19.152;2023-04-27T04:55:15;98393.98;;;5.48;55.03
41306;BME280;27051;50.376;19.152;2023-04-27T04:57:42;98395.90;;;5.55;55.11
41306;BME280;27051;50.376;19.152;2023-04-27T05:00:09;98396.38;;;5.63;55.23
41306;BME280;27051;50.376;19.152;2023-04-27T05:02:35;98396.17;;;5.70;55.26
41306;BME280;27051;50.376;19.152;2023-04-27T05:05:02;98398.95;;;5.78;55.20
41306;BME280;27051;50.376;19.152;2023-04-27T05:07:28;98395.86;;;5.84;55.30
41306;BME280;27051;50.376;19.152;2023-04-27T05:09:55;98396.64;;;5.88;55.15
41306;BME280;27051;50.376;19.152;2023-04-27T05:12:22;98396.13;;;5.98;55.16
41306;BME280;27051;50.376;19.152;2023-04-27T05:14:50;98399.41;;;6.09;55.30
41306;BME280;27051;50.376;19.152;2023-04-27T05:17:17;98410.27;;;6.29;55.20
41306;BME280;27051;50.376;19.152;2023-04-27T05:19:44;98410.42;;;6.41;54.95
41306;BME280;27051;50.376;19.152;2023-04-27T05:22:11;98410.33;;;6.45;54.76
41306;BME280;27051;50.376;19.152;2023-04-27T05:24:37;98411.45;;;6.51;54.92
41306;BME280;27051;50.376;19.152;2023-04-27T05:27:04;98412.16;;;6.60;54.85
41306;BME280;27051;50.376;19.152;2023-04-27T05:29:30;98416.52;;;6.65;54.96
41306;BME280;27051;50.376;19.152;2023-04-27T05:31:57;98415.38;;;6.77;55.07
41306;BME280;27051;50.376;19.152;2023-04-27T05:34:23;98414.84;;;6.85;54.85
41306;BME280;27051;50.376;19.152;2023-04-27T05:36:50;98419.31;;;6.91;54.86
41306;BME280;27051;50.376;19.152;2023-04-27T05:39:16;98416.85;;;6.97;54.67
41306;BME280;27051;50.376;19.152;2023-04-27T05:41:42;98422.14;;;7.05;54.95
41306;BME280;27051;50.376;19.152;2023-04-27T05:44:09;98424.95;;;7.12;54.46
41306;BME280;27051;50.376;19.152;2023-04-27T05:46:35;98430.45;;;7.16;54.25
41306;BME280;27051;50.376;19.152;2023-04-27T05:49:02;98430.45;;;7.18;53.90
41306;BME280;27051;50.376;19.152;2023-04-27T05:51:28;98433.52;;;7.19;53.73
41306;BME280;27051;50.376;19.152;2023-04-27T05:53:54;98431.77;;;7.21;53.70
41306;BME280;27051;50.376;19.152;2023-04-27T05:56:21;98430.98;;;7.27;53.69
41306;BME280;27051;50.376;19.152;2023-04-27T05:58:48;98433.24;;;7.32;53.56
41306;BME280;27051;50.376;19.152;2023-04-27T06:01:14;98435.46;;;7.39;53.61
41306;BME280;27051;50.376;19.152;2023-04-27T06:03:40;98437.41;;;7.46;53.39
41306;BME280;27051;50.376;19.152;2023-04-27T06:06:07;98435.80;;;7.54;53.26
41306;BME280;27051;50.376;19.152;2023-04-27T06:08:33;98432.85;;;7.59;53.19
41306;BME280;27051;50.376;19.152;2023-04-27T06:11:00;98437.10;;;7.69;53.34
41306;BME280;27051;50.376;19.152;2023-04-27T06:13:26;98440.54;;;7.77;53.20
41306;BME280;27051;50.376;19.152;2023-04-27T06:15:53;98435.69;;;7.88;53.14
41306;BME280;27051;50.376;19.152;2023-04-27T06:18:21;98440.63;;;8.04;53.32
41306;BME280;27051;50.376;19.152;2023-04-27T06:20:48;98441.59;;;8.20;52.95
41306;BME280;27051;50.376;19.152;2023-04-27T06:23:23;98440.73;;;8.36;52.80
41306;BME280;27051;50.376;19.152;2023-04-27T06:25:49;98441.16;;;8.50;52.73
41306;BME280;27051;50.376;19.152;2023-04-27T06:28:16;98441.56;;;8.63;51.96
41306;BME280;27051;50.376;19.152;2023-04-27T06:30:42;98446.74;;;8.77;52.27
41306;BME280;27051;50.376;19.152;2023-04-27T06:33:08;98446.87;;;8.91;51.96
41306;BME280;27051;50.376;19.152;2023-04-27T06:35:35;98446.88;;;9.02;51.75
41306;BME280;27051;50.376;19.152;2023-04-27T06:38:03;98448.30;;;9.20;51.79
41306;BME280;27051;50.376;19.152;2023-04-27T06:40:29;98450.30;;;9.33;51.42
41306;BME280;27051;50.376;19.152;2023-04-27T06:42:56;98446.58;;;9.48;51.58
41306;BME280;27051;50.376;19.152;2023-04-27T06:45:22;98445.56;;;9.65;51.46
41306;BME280;27051;50.376;19.152;2023-04-27T06:47:48;98443.03;;;9.78;50.84
41306;BME280;27051;50.376;19.152;2023-04-27T06:50:15;98443.92;;;9.86;50.04
41306;BME280;27051;50.376;19.152;2023-04-27T06:52:41;98441.48;;;9.94;50.35
41306;BME280;27051;50.376;19.152;2023-04-27T06:55:08;98439.28;;;10.06;50.31
41306;BME280;27051;50.376;19.152;2023-04-27T06:57:35;98445.02;;;10.11;49.08
41306;BME280;27051;50.376;19.152;2023-04-27T07:00:02;98441.59;;;10.11;49.48
41306;BME280;27051;50.376;19.152;2023-04-27T07:02:28;98450.30;;;10.08;49.09
41306;BME280;27051;50.376;19.152;2023-04-27T07:04:54;98450.72;;;10.06;49.30
41306;BME280;27051;50.376;19.152;2023-04-27T07:07:22;98451.34;;;10.08;49.24
41306;BME280;27051;50.376;19.152;2023-04-27T07:09:48;98452.65;;;10.06;48.90
41306;BME280;27051;50.376;19.152;2023-04-27T07:12:15;98455.13;;;10.08;48.61
41306;BME280;27051;50.376;19.152;2023-04-27T07:14:41;98453.42;;;10.08;48.62
41306;BME280;27051;50.376;19.152;2023-04-27T07:17:08;98451.92;;;10.15;49.11
41306;BME280;27051;50.376;19.152;2023-04-27T07:19:35;98449.24;;;10.32;49.24
41306;BME280;27051;50.376;19.152;2023-04-27T07:22:02;98447.95;;;10.55;49.03
41306;BME280;27051;50.376;19.152;2023-04-27T07:24:29;98446.23;;;10.76;48.76
41306;BME280;27051;50.376;19.152;2023-04-27T07:26:55;98444.59;;;10.91;47.85
41306;BME280;27051;50.376;19.152;2023-04-27T07:29:21;98445.35;;;11.07;48.27
41306;BME280;27051;50.376;19.152;2023-04-27T07:31:48;98444.06;;;11.22;47.83
41306;BME280;27051;50.376;19.152;2023-04-27T07:34:14;98443.55;;;11.39;47.22
41306;BME280;27051;50.376;19.152;2023-04-27T07:36:41;98445.67;;;11.52;46.32
41306;BME280;27051;50.376;19.152;2023-04-27T07:39:07;98445.97;;;11.40;45.95
41306;BME280;27051;50.376;19.152;2023-04-27T07:41:34;98445.35;;;11.23;45.68
41306;BME280;27051;50.376;19.152;2023-04-27T07:44:00;98444.95;;;11.07;45.72
41306;BME280;27051;50.376;19.152;2023-04-27T07:46:26;98447.74;;;10.96;46.06
41306;BME280;27051;50.376;19.152;2023-04-27T07:48:53;98444.80;;;10.98;45.90
41306;BME280;27051;50.376;19.152;2023-04-27T07:51:19;98447.27;;;11.04;46.01
41306;BME280;27051;50.376;19.152;2023-04-27T07:53:46;98442.00;;;11.39;46.49
41306;BME280;27051;50.376;19.152;2023-04-27T07:56:12;98438.68;;;11.75;45.58
41306;BME280;27051;50.376;19.152;2023-04-27T07:58:38;98433.17;;;12.01;45.29
41306;BME280;27051;50.376;19.152;2023-04-27T08:01:05;98437.95;;;12.14;44.72
41306;BME280;27051;50.376;19.152;2023-04-27T08:03:31;98442.92;;;12.26;44.00
41306;BME280;27051;50.376;19.152;2023-04-27T08:05:58;98445.74;;;12.41;44.31
41306;BME280;27051;50.376;19.152;2023-04-27T08:08:24;98442.02;;;12.44;44.22
41306;BME280;27051;50.376;19.152;2023-04-27T08:10:51;98444.23;;;12.37;44.12
41306;BME280;27051;50.376;19.152;2023-04-27T08:13:17;98449.55;;;12.34;43.53
41306;BME280;27051;50.376;19.152;2023-04-27T08:15:43;98449.46;;;12.40;43.46
41306;BME280;27051;50.376;19.152;2023-04-27T08:18:10;98452.61;;;12.61;43.56
41306;BME280;27051;50.376;19.152;2023-04-27T08:20:36;98454.31;;;12.67;43.41
41306;BME280;27051;50.376;19.152;2023-04-27T08:23:03;98455.55;;;12.56;42.15
41306;BME280;27051;50.376;19.152;2023-04-27T08:25:30;98457.39;;;12.39;42.14
41306;BME280;27051;50.376;19.152;2023-04-27T08:27:57;98453.99;;;12.20;42.11
41306;BME280;27051;50.376;19.152;2023-04-27T08:30:23;98452.40;;;12.15;42.71
41306;BME280;27051;50.376;19.152;2023-04-27T08:32:50;98450.83;;;12.14;42.63
41306;BME280;27051;50.376;19.152;2023-04-27T08:35:16;98454.68;;;12.23;42.73
41306;BME280;27051;50.376;19.152;2023-04-27T08:37:43;98454.41;;;12.60;42.26
41306;BME280;27051;50.376;19.152;2023-04-27T08:40:09;98469.87;;;12.93;41.52
41306;BME280;27051;50.376;19.152;2023-04-27T08:42:36;98453.62;;;12.96;40.97
41306;BME280;27051;50.376;19.152;2023-04-27T08:45:05;98452.94;;;13.00;40.99
41306;BME280;27051;50.376;19.152;2023-04-27T08:47:32;98448.75;;;13.20;41.03
41306;BME280;27051;50.376;19.152;2023-04-27T08:49:58;98451.76;;;13.53;41.31
41306;BME280;27051;50.376;19.152;2023-04-27T08:52:25;98445.26;;;13.96;40.99
41306;BME280;27051;50.376;19.152;2023-04-27T08:54:52;98444.12;;;14.30;40.47
41306;BME280;27051;50.376;19.152;2023-04-27T08:57:19;98448.04;;;14.26;39.46
41306;BME280;27051;50.376;19.152;2023-04-27T08:59:56;98453.23;;;14.09;39.39
41306;BME280;27051;50.376;19.152;2023-04-27T09:02:23;98455.45;;;13.90;39.44
41306;BME280;27051;50.376;19.152;2023-04-27T09:04:50;98458.86;;;13.70;39.45
41306;BME280;27051;50.376;19.152;2023-04-27T09:07:17;98460.53;;;13.53;39.49
41306;BME280;27051;50.376;19.152;2023-04-27T09:09:48;98464.93;;;13.40;39.38
41306;BME280;27051;50.376;19.152;2023-04-27T09:12:17;98464.52;;;13.33;39.70
41306;BME280;27051;50.376;19.152;2023-04-27T09:15:04;98462.64;;;13.28;39.58
41306;BME280;27051;50.376;19.152;2023-04-27T09:17:31;98462.97;;;13.26;38.99
41306;BME280;27051;50.376;19.152;2023-04-27T09:22:40;98463.55;;;13.11;39.14
41306;BME280;27051;50.376;19.152;2023-04-27T09:25:07;98464.13;;;12.95;39.08
41306;BME280;27051;50.376;19.152;2023-04-27T09:27:37;98463.54;;;12.75;39.07
41306;BME280;27051;50.376;19.152;2023-04-27T09:30:13;98461.84;;;12.55;39.27
41306;BME280;27051;50.376;19.152;2023-04-27T09:32:49;98460.05;;;12.38;39.46
41306;BME280;27051;50.376;19.152;2023-04-27T09:35:27;98467.63;;;12.34;39.42
41306;BME280;27051;50.376;19.152;2023-04-27T09:37:54;98467.38;;;12.26;39.16
41306;BME280;27051;50.376;19.152;2023-04-27T09:40:25;98463.64;;;12.21;39.03
41306;BME280;27051;50.376;19.152;2023-04-27T09:42:51;98462.13;;;12.25;38.88
41306;BME280;27051;50.376;19.152;2023-04-27T09:45:18;98459.20;;;12.35;39.05
41306;BME280;27051;50.376;19.152;2023-04-27T09:47:44;98455.95;;;12.57;38.92
41306;BME280;27051;50.376;19.152;2023-04-27T09:50:14;98457.67;;;12.75;38.63
41306;BME280;27051;50.376;19.152;2023-04-27T09:52:41;98456.73;;;13.09;38.19
41306;BME280;27051;50.376;19.152;2023-04-27T09:55:15;98453.13;;;13.66;38.37
41306;BME280;27051;50.376;19.152;2023-04-27T10:01:34;98440.55;;;15.52;37.67
41306;BME280;27051;50.376;19.152;2023-04-27T10:07:00;98443.41;;;17.32;35.58
41306;BME280;27051;50.376;19.152;2023-04-27T10:09:34;98445.39;;;17.28;34.73
41306;BME280;27051;50.376;19.152;2023-04-27T10:12:22;98441.64;;;16.99;34.47
41306;BME280;27051;50.376;19.152;2023-04-27T10:14:53;98451.51;;;16.66;34.78
41306;BME280;27051;50.376;19.152;2023-04-27T10:19:59;98450.58;;;16.10;35.04
41306;BME280;27051;50.376;19.152;2023-04-27T10:22:42;98447.61;;;15.93;35.18
41306;BME280;27051;50.376;19.152;2023-04-27T10:25:22;98448.73;;;15.74;34.94
41306;BME280;27051;50.376;19.152;2023-04-27T10:27:55;98448.91;;;15.57;35.05
41306;BME280;27051;50.376;19.152;2023-04-27T10:30:25;98444.78;;;15.45;35.05
41306;BME280;27051;50.376;19.152;2023-04-27T10:32:54;98445.16;;;15.40;35.08
41306;BME280;27051;50.376;19.152;2023-04-27T10:35:31;98443.40;;;15.36;34.72
41306;BME280;27051;50.376;19.152;2023-04-27T10:38:14;98443.45;;;15.22;34.54
41306;BME280;27051;50.376;19.152;2023-04-27T10:40:44;98444.33;;;15.05;34.76
41306;BME280;27051;50.376;19.152;2023-04-27T10:43:17;98443.97;;;14.97;34.81
41306;BME280;27051;50.376;19.152;2023-04-27T13:06:57;98465.69;;;18.00;27.34
41306;BME280;27051;50.376;19.152;2023-04-27T13:09:23;98465.25;;;18.05;27.17
41306;BME280;27051;50.376;19.152;2023-04-27T13:11:50;98463.20;;;18.13;27.54
41306;BME280;27051;50.376;19.152;2023-04-27T13:14:16;98462.03;;;18.28;27.47
41306;BME280;27051;50.376;19.152;2023-04-27T13:16:43;98457.48;;;18.33;27.12
41306;BME280;27051;50.376;19.152;2023-04-27T13:19:09;98458.48;;;18.19;27.00
41306;BME280;27051;50.376;19.152;2023-04-27T13:21:36;98457.62;;;18.18;27.09
41306;BME280;27051;50.376;19.152;2023-04-27T13:24:03;98457.75;;;18.25;27.29
41306;BME280;27051;50.376;19.152;2023-04-27T13:26:29;98459.12;;;18.21;27.38
41306;BME280;27051;50.376;19.152;2023-04-27T13:28:56;98460.35;;;18.16;27.27
41306;BME280;27051;50.376;19.152;2023-04-27T13:31:23;98459.95;;;18.04;26.93
41306;BME280;27051;50.376;19.152;2023-04-27T13:33:49;98460.58;;;18.04;27.04
41306;BME280;27051;50.376;19.152;2023-04-27T13:36:16;98460.73;;;17.93;26.86
41306;BME280;27051;50.376;19.152;2023-04-27T13:38:42;98458.61;;;17.78;26.94
41306;BME280;27051;50.376;19.152;2023-04-27T13:41:08;98459.86;;;17.60;26.94
41306;BME280;27051;50.376;19.152;2023-04-27T13:43:35;98463.27;;;17.30;26.96
41306;BME280;27051;50.376;19.152;2023-04-27T13:46:01;98463.70;;;17.03;27.07
41306;BME280;27051;50.376;19.152;2023-04-27T13:48:29;98465.97;;;16.83;26.93
41306;BME280;27051;50.376;19.152;2023-04-27T13:51:08;98468.00;;;16.46;27.42
41306;BME280;27051;50.376;19.152;2023-04-27T13:53:34;98469.57;;;16.17;28.04
41306;BME280;27051;50.376;19.152;2023-04-27T13:56:00;98473.38;;;15.96;28.16
41306;BME280;27051;50.376;19.152;2023-04-27T13:58:27;98475.82;;;15.69;27.97
41306;BME280;27051;50.376;19.152;2023-04-27T14:00:54;98484.30;;;15.39;28.36
41306;BME280;27051;50.376;19.152;2023-04-27T14:03:20;98480.30;;;15.14;28.74
41306;BME280;27051;50.376;19.152;2023-04-27T14:05:46;98483.21;;;14.95;28.92
41306;BME280;27051;50.376;19.152;2023-04-27T14:08:13;98484.15;;;14.68;29.08
41306;BME280;27051;50.376;19.152;2023-04-27T14:10:39;98483.92;;;14.42;29.37
41306;BME280;27051;50.376;19.152;2023-04-27T14:13:06;98484.08;;;14.35;29.49
41306;BME280;27051;50.376;19.152;2023-04-27T14:15:32;98484.55;;;14.43;29.75
41306;BME280;27051;50.376;19.152;2023-04-27T14:17:59;98486.05;;;14.37;29.43
41306;BME280;27051;50.376;19.152;2023-04-27T14:20:25;98486.10;;;14.36;29.88
41306;BME280;27051;50.376;19.152;2023-04-27T14:22:52;98483.90;;;14.42;30.11
41306;BME280;27051;50.376;19.152;2023-04-27T14:25:18;98487.65;;;14.40;30.24
41306;BME280;27051;50.376;19.152;2023-04-27T14:27:44;98488.88;;;14.40;30.48
41306;BME280;27051;50.376;19.152;2023-04-27T14:30:11;98491.19;;;14.24;30.61
41306;BME280;27051;50.376;19.152;2023-04-27T14:32:38;98496.98;;;14.10;30.50
41306;BME280;27051;50.376;19.152;2023-04-27T14:35:04;98504.69;;;13.86;30.39
41306;BME280;27051;50.376;19.152;2023-04-27T14:37:31;98504.17;;;13.71;30.67
41306;BME280;27051;50.376;19.152;2023-04-27T14:39:57;98505.73;;;13.53;31.03
41306;BME280;27051;50.376;19.152;2023-04-27T14:42:24;98506.63;;;13.36;31.21
41306;BME280;27051;50.376;19.152;2023-04-27T14:44:50;98505.77;;;13.24;31.67
41306;BME280;27051;50.376;19.152;2023-04-27T14:47:17;98510.00;;;13.17;31.79
41306;BME280;27051;50.376;19.152;2023-04-27T14:49:43;98507.84;;;13.12;31.86
41306;BME280;27051;50.376;19.152;2023-04-27T14:52:09;98506.97;;;13.11;32.17
41306;BME280;27051;50.376;19.152;2023-04-27T14:54:36;98503.94;;;13.24;32.47
41306;BME280;27051;50.376;19.152;2023-04-27T14:57:02;98501.73;;;13.37;32.40
41306;BME280;27051;50.376;19.152;2023-04-27T14:59:29;98499.06;;;13.44;32.43
41306;BME280;27051;50.376;19.152;2023-04-27T15:01:55;98504.03;;;13.55;32.61
41306;BME280;27051;50.376;19.152;2023-04-27T15:04:21;98508.77;;;13.56;32.36
41306;BME280;27051;50.376;19.152;2023-04-27T15:06:48;98505.77;;;13.54;32.31
41306;BME280;27051;50.376;19.152;2023-04-27T15:09:14;98503.89;;;13.68;32.43
41306;BME280;27051;50.376;19.152;2023-04-27T15:11:40;98508.92;;;14.02;32.64
41306;BME280;27051;50.376;19.152;2023-04-27T15:14:07;98507.72;;;14.34;32.49
41306;BME280;27051;50.376;19.152;2023-04-27T15:16:33;98513.38;;;14.53;32.22
41306;BME280;27051;50.376;19.152;2023-04-27T15:18:59;98505.25;;;14.68;32.22
41306;BME280;27051;50.376;19.152;2023-04-27T15:21:26;98507.59;;;14.84;32.14
41306;BME280;27051;50.376;19.152;2023-04-27T15:23:52;98508.93;;;14.89;31.77
41306;BME280;27051;50.376;19.152;2023-04-27T15:26:19;98508.14;;;14.92;31.64
41306;BME280;27051;50.376;19.152;2023-04-27T15:28:45;98506.02;;;15.04;31.93
41306;BME280;27051;50.376;19.152;2023-04-27T15:31:12;98504.77;;;15.15;32.33
